Portada
METAR-TAF:

METAR-TAF

Aeroports :

Malé, Maldives

latitud: 04-12N, longitud: 073-32E, altitud: 2 m

Observació

L'informe es va fer fa 29 minuts, a les 22:00 UTC
Vent 9 kt del Est/Nord-Est
Temperatura 28°C
Humitat 84%
Pressió 1009 hPa
Visibilitat 10 km o més
Escasses núvols a una alçada de 1800 ft
Cel ennuvolat a una alçada de 27000 ft

METAR: VRMM 182200Z 07009KT 9999 FEW018 BKN270 28/25 Q1009 NOSIG

Hora: 03:29 (22:29 UTC)

Pronòstic

L'informe es va fer fa 5 hores i 29 minuts, a les 17:00 UTC
Pronòstic vàlid del 18 a les 18 UTC al 19 a les 24 UTC
Vent 15 kt del Est
Visibilitat: 9000 m
Escasses núvols a una alçada de 1900 ft
Temporalment
l' 18 a les 18 UTC al 18 a les 24 UTC
Escasses núvols a una alçada de 1800 ft, Cumulonimbus.

TAF: VRMM 181700Z 1818/1924 09015KT 9000 FEW019 TEMPO 1818/1824 FEW018CB

Observacions i pronòstics meteorològics de més de 4000 aeroports (METAR i TAF).

Les estacions disponibles són els punts grocs i vermells al mapa.

Posi el ratolí al punt desitjat per veure el nom de l'estació.

Feu clic per veure les observacions i els pronòstics meteorològics.

Per canviar el mapa: feu clic els botons verds amb una creu de color negre per apropar; al botó verd amb un guió per allunyar la imatge; o en les fletxes verdes per a mapes adjacents.


METAR-TAF: